Time;durP1;ratioP1;P1;durP2;ratioP2;P2;SDS_P1;SDS_P2;PMS_P1;PMS_P2;Temp;Humidity;BMP_temperature;BMP_pressure;BME280_temperature;BME280_humidity;BME280_pressure;Samples;Min_cycle;Max_cycle;Signal;HPM_P1;HPM_P2
2023/06/14 00:01:55;;;;;;;19.40;17.50;;;23.20;1.00;;;;;;5033920;28;20040;-58
2023/06/14 00:04:21;;;;;;;18.05;16.35;;;23.20;1.00;;;;;;5034214;28;20108;-59
2023/06/14 00:06:48;;;;;;;19.60;16.98;;;23.20;1.00;;;;;;5035123;28;20030;-59
2023/06/14 00:09:14;;;;;;;21.80;18.95;;;23.10;1.00;;;;;;5034220;28;20052;-59
2023/06/14 00:11:41;;;;;;;22.48;19.70;;;22.90;1.00;;;;;;5025940;28;20029;-59
2023/06/14 00:14:06;;;;;;;21.55;19.52;;;22.80;1.00;;;;;;5033153;28;20037;-59
2023/06/14 00:16:33;;;;;;;20.98;18.88;;;22.80;1.00;;;;;;5032276;28;20033;-59
2023/06/14 00:18:59;;;;;;;21.50;19.35;;;22.80;1.00;;;;;;5031976;28;20025;-59
2023/06/14 00:21:29;;;;;;;19.92;17.92;;;22.80;1.00;;;;;;5030599;28;20590;-59
2023/06/14 00:23:55;;;;;;;20.55;18.65;;;22.70;1.00;;;;;;5032104;28;20029;-59
2023/06/14 00:26:21;;;;;;;19.98;17.90;;;22.80;1.00;;;;;;5030268;28;20479;-59
2023/06/14 00:28:47;;;;;;;19.33;17.52;;;22.60;1.00;;;;;;5033083;28;20025;-59
2023/06/14 00:31:12;;;;;;;20.13;18.20;;;22.60;1.00;;;;;;5031231;28;20033;-59
2023/06/14 00:33:43;;;;;;;19.98;18.00;;;22.50;1.00;;;;;;5032176;28;20021;-59
2023/06/14 00:36:08;;;;;;;20.23;18.25;;;22.50;1.00;;;;;;5032124;28;20426;-59
2023/06/14 00:38:34;;;;;;;19.25;17.45;;;22.40;1.00;;;;;;5033648;28;20026;-59
2023/06/14 00:41:00;;;;;;;18.83;17.05;;;22.50;1.00;;;;;;5032494;28;20029;-59
2023/06/14 00:43:27;;;;;;;20.13;18.33;;;22.40;1.00;;;;;;5034722;28;20017;-59
2023/06/14 00:45:53;;;;;;;30.17;23.85;;;22.40;1.00;;;;;;5033749;28;20037;-59
2023/06/14 00:48:19;;;;;;;26.15;20.60;;;22.10;1.00;;;;;;5023729;28;20089;-59
2023/06/14 00:50:45;;;;;;;28.17;22.10;;;22.10;1.00;;;;;;5033187;28;20089;-59
2023/06/14 00:53:12;;;;;;;23.70;20.50;;;22.00;1.00;;;;;;5031871;28;20079;-59
2023/06/14 00:55:38;;;;;;;21.45;19.20;;;21.80;1.00;;;;;;5033375;28;20060;-58
2023/06/14 00:58:04;;;;;;;21.02;18.85;;;21.80;1.00;;;;;;5034445;28;20045;-58
2023/06/14 01:00:30;;;;;;;20.90;18.77;;;21.80;1.00;;;;;;5032328;28;20081;-58
2023/06/14 01:02:56;;;;;;;20.88;18.65;;;21.60;1.00;;;;;;5034096;28;20475;-58
2023/06/14 01:05:23;;;;;;;20.48;18.30;;;21.70;1.00;;;;;;5030166;28;20433;-58
2023/06/14 01:08:10;;;;;;;19.52;17.60;;;21.70;1.00;;;;;;5034026;28;20022;-58
2023/06/14 01:10:56;;;;;;;18.55;16.77;;;21.70;1.00;;;;;;5021617;28;20041;-58
2023/06/14 01:16:45;;;;;;;18.25;16.40;;;21.60;1.00;;;;;;5014990;28;20444;-58
2023/06/14 01:19:13;;;;;;;17.38;15.68;;;21.70;1.00;;;;;;5030960;28;20033;-58
2023/06/14 01:21:41;;;;;;;17.95;16.05;;;21.70;1.00;;;;;;5032315;28;20033;-59
2023/06/14 01:24:11;;;;;;;29.23;20.02;;;21.80;1.00;;;;;;5032875;28;20037;-59
2023/06/14 01:26:38;;;;;;;19.83;17.83;;;21.70;1.00;;;;;;5026392;28;20029;-59
2023/06/14 01:29:04;;;;;;;19.27;17.27;;;21.40;1.00;;;;;;5030465;28;20034;-59
2023/06/14 01:31:40;;;;;;;17.50;15.68;;;21.30;1.00;;;;;;5032230;28;20478;-59
2023/06/14 01:34:09;;;;;;;16.85;15.15;;;21.30;5.10;;;;;;5030314;28;20490;-59
2023/06/14 01:36:37;;;;;;;17.08;14.10;;;21.40;1.00;;;;;;5032213;28;20030;-59
2023/06/14 01:39:05;;;;;;;15.93;14.15;;;21.30;1.00;;;;;;5030673;28;20042;-59
2023/06/14 01:41:31;;;;;;;15.68;13.95;;;21.30;1.00;;;;;;5030853;28;20053;-59
2023/06/14 01:43:58;;;;;;;12.75;11.55;;;21.40;1.00;;;;;;5030833;28;20029;-59
2023/06/14 01:46:25;;;;;;;11.07;9.73;;;21.40;1.00;;;;;;5031200;28;20116;-59
2023/06/14 01:48:51;;;;;;;10.68;9.68;;;21.40;1.00;;;;;;5030978;28;20574;-59
2023/06/14 01:51:16;;;;;;;10.27;9.35;;;21.30;1.00;;;;;;5030778;28;20503;-59
2023/06/14 01:53:42;;;;;;;9.23;8.07;;;21.30;1.00;;;;;;5033193;28;20026;-59
2023/06/14 01:56:07;;;;;;;8.88;8.07;;;21.30;1.00;;;;;;5031545;28;20033;-59
2023/06/14 01:58:33;;;;;;;8.60;7.80;;;21.30;1.00;;;;;;5031748;28;20454;-59
2023/06/14 02:01:00;;;;;;;7.97;7.13;;;21.40;1.00;;;;;;5032513;28;20375;-59
2023/06/14 02:03:26;;;;;;;7.78;7.07;;;21.20;1.00;;;;;;5033055;28;20021;-59
2023/06/14 02:05:52;;;;;;;7.70;7.10;;;21.30;1.00;;;;;;5031411;28;20032;-59
2023/06/14 02:08:17;;;;;;;7.40;6.80;;;21.30;1.00;;;;;;5030782;28;20119;-59
2023/06/14 02:10:43;;;;;;;8.18;7.03;;;21.30;1.00;;;;;;5032946;28;20083;-59
2023/06/14 02:13:09;;;;;;;7.53;6.82;;;21.20;1.00;;;;;;5030461;28;20025;-59
2023/06/14 02:15:35;;;;;;;8.65;7.18;;;21.30;1.00;;;;;;5031947;28;20037;-59
2023/06/14 02:18:04;;;;;;;6.82;6.22;;;21.30;1.00;;;;;;5032952;28;20026;-59
2023/06/14 02:20:30;;;;;;;6.80;6.20;;;21.20;1.00;;;;;;5032796;28;20467;-59
2023/06/14 02:22:56;;;;;;;6.47;5.97;;;21.20;1.00;;;;;;5032392;28;20056;-59
2023/06/14 02:25:21;;;;;;;5.30;4.82;;;21.20;1.00;;;;;;5031867;28;20029;-59
2023/06/14 02:27:47;;;;;;;4.75;4.35;;;21.10;1.00;;;;;;5032792;28;20021;-59
2023/06/14 02:30:15;;;;;;;3.80;3.50;;;21.10;1.00;;;;;;5031971;28;20038;-59
2023/06/14 02:32:42;;;;;;;4.25;3.85;;;21.10;1.00;;;;;;5032861;28;20045;-59
2023/06/14 02:35:08;;;;;;;4.13;3.83;;;21.20;1.00;;;;;;5030420;28;20064;-59
2023/06/14 02:37:35;;;;;;;3.72;3.42;;;21.20;1.00;;;;;;5032642;28;20379;-59
2023/06/14 02:40:00;;;;;;;4.30;3.95;;;21.20;1.00;;;;;;5029322;28;20029;-59
2023/06/14 02:42:26;;;;;;;3.55;3.30;;;21.10;1.00;;;;;;5049653;28;20517;-59
2023/06/14 02:44:52;;;;;;;5.65;4.03;;;21.10;1.00;;;;;;5041185;28;20033;-59
2023/06/14 02:47:18;;;;;;;4.00;3.58;;;21.10;1.00;;;;;;5030291;28;20398;-59
2023/06/14 02:49:46;;;;;;;3.50;2.50;;;21.10;1.00;;;;;;5037007;28;20045;-59
2023/06/14 02:52:37;;;;;;;3.70;3.40;;;21.00;1.00;;;;;;5032473;28;20471;-59
2023/06/14 02:55:03;;;;;;;5.22;3.85;;;21.10;1.00;;;;;;5030713;28;20030;-59
2023/06/14 02:57:29;;;;;;;3.60;3.30;;;21.10;1.00;;;;;;5035145;28;20038;-59
2023/06/14 02:59:55;;;;;;;4.82;3.30;;;21.10;1.00;;;;;;5041336;28;20025;-59
2023/06/14 03:02:20;;;;;;;5.07;3.38;;;21.00;1.00;;;;;;5032593;28;20411;-59
2023/06/14 03:04:46;;;;;;;3.95;3.55;;;21.00;1.00;;;;;;5025344;28;20026;-59
2023/06/14 03:07:12;;;;;;;3.63;3.33;;;21.00;1.00;;;;;;5026395;28;20087;-59
2023/06/14 03:09:39;;;;;;;4.55;3.85;;;21.00;1.00;;;;;;5031665;28;20124;-59
2023/06/14 03:12:15;;;;;;;5.47;3.65;;;21.00;1.00;;;;;;5030516;28;20052;-59
2023/06/14 03:14:41;;;;;;;4.45;3.55;;;20.90;1.00;;;;;;5036421;28;20490;-59
2023/06/14 03:17:08;;;;;;;4.90;3.70;;;20.90;1.00;;;;;;5035998;28;20041;-59
2023/06/14 03:19:33;;;;;;;4.80;4.10;;;20.90;1.00;;;;;;5032354;28;20025;-59
2023/06/14 03:21:59;;;;;;;4.60;3.50;;;20.90;1.00;;;;;;5031617;28;20104;-59
2023/06/14 03:24:27;;;;;;;3.55;3.17;;;20.90;1.00;;;;;;5032666;28;20415;-59
2023/06/14 03:26:54;;;;;;;3.95;3.50;;;20.80;1.00;;;;;;5034215;28;20017;-59
2023/06/14 03:29:19;;;;;;;3.83;3.53;;;20.80;1.00;;;;;;5035974;28;20087;-59
2023/06/14 03:32:05;;;;;;;3.60;3.30;;;20.80;1.00;;;;;;5034130;28;20479;-59
2023/06/14 03:34:31;;;;;;;4.70;3.42;;;20.70;1.00;;;;;;5034562;28;20040;-59
2023/06/14 03:36:57;;;;;;;3.67;3.38;;;20.70;1.00;;;;;;5034772;28;20034;-59
2023/06/14 03:39:23;;;;;;;3.47;3.17;;;20.80;1.00;;;;;;5035697;28;20053;-59
2023/06/14 03:41:48;;;;;;;3.40;2.95;;;20.70;1.00;;;;;;5030808;28;20368;-59
2023/06/14 03:44:18;;;;;;;3.60;3.08;;;20.80;1.00;;;;;;5035913;28;20387;-59
2023/06/14 03:46:45;;;;;;;3.85;3.17;;;20.80;1.00;;;;;;5033884;28;20087;-59
2023/06/14 03:49:11;;;;;;;4.75;4.07;;;20.70;1.00;;;;;;5043366;28;20108;-59
2023/06/14 03:51:37;;;;;;;3.17;2.97;;;20.80;1.00;;;;;;5039188;28;20407;-59
2023/06/14 03:54:02;;;;;;;3.17;2.90;;;20.80;1.00;;;;;;5034404;28;20029;-59
2023/06/14 03:56:28;;;;;;;4.07;3.67;;;20.80;1.00;;;;;;5033806;28;20547;-59
2023/06/14 03:58:54;;;;;;;3.70;3.20;;;20.80;1.00;;;;;;5033949;28;20029;-59
2023/06/14 04:01:19;;;;;;;4.38;3.47;;;20.80;1.00;;;;;;5034280;28;20104;-59
2023/06/14 04:03:46;;;;;;;4.03;3.45;;;20.80;1.00;;;;;;5035298;28;20064;-59
2023/06/14 04:06:12;;;;;;;3.95;3.13;;;20.70;1.00;;;;;;5033379;28;20478;-60
2023/06/14 04:08:39;;;;;;;3.63;3.20;;;20.80;1.00;;;;;;5033978;28;20121;-59
2023/06/14 04:11:05;;;;;;;3.97;3.58;;;20.80;1.00;;;;;;5032251;28;20124;-59
2023/06/14 04:13:31;;;;;;;3.45;3.25;;;20.80;1.00;;;;;;5035060;28;20451;-59
2023/06/14 04:15:56;;;;;;;3.40;3.10;;;20.60;1.00;;;;;;5034120;28;20105;-59
2023/06/14 04:18:23;;;;;;;3.60;3.20;;;20.70;1.00;;;;;;5034051;28;20049;-59
2023/06/14 04:20:50;;;;;;;4.55;3.70;;;20.70;1.00;;;;;;5032699;28;20568;-60
2023/06/14 04:23:18;;;;;;;5.03;3.60;;;20.70;1.00;;;;;;5033077;28;20527;-59
2023/06/14 04:25:47;;;;;;;4.32;3.92;;;20.70;1.00;;;;;;5032750;28;20025;-59
2023/06/14 04:28:15;;;;;;;3.97;3.42;;;20.70;1.00;;;;;;5033796;28;20022;-59
2023/06/14 04:30:41;;;;;;;4.45;3.38;;;20.70;1.00;;;;;;5033784;28;20095;-59
2023/06/14 04:33:09;;;;;;;4.25;3.85;;;20.60;1.00;;;;;;5034836;28;20037;-59
2023/06/14 04:35:37;;;;;;;3.75;3.45;;;20.70;1.00;;;;;;5033699;28;20017;-59
2023/06/14 04:38:04;;;;;;;4.30;3.70;;;20.70;1.00;;;;;;5033522;28;20463;-59
2023/06/14 04:40:31;;;;;;;3.75;3.45;;;20.60;1.00;;;;;;5032007;28;20043;-59
2023/06/14 04:42:57;;;;;;;3.22;2.92;;;20.60;1.00;;;;;;5034383;28;20064;-59
2023/06/14 04:45:23;;;;;;;3.47;3.28;;;20.70;1.00;;;;;;5033570;28;20111;-59
2023/06/14 04:47:50;;;;;;;3.90;3.60;;;20.60;1.00;;;;;;5033584;28;20032;-59
2023/06/14 04:50:18;;;;;;;3.80;3.50;;;20.60;1.00;;;;;;5048138;28;20188;-60
2023/06/14 04:52:43;;;;;;;4.00;3.60;;;20.60;1.00;;;;;;5032055;28;20028;-59
2023/06/14 04:55:09;;;;;;;4.15;3.70;;;20.60;1.00;;;;;;5033269;28;20112;-59
2023/06/14 04:57:35;;;;;;;4.78;3.33;;;20.60;1.00;;;;;;5033472;28;20026;-60
2023/06/14 05:00:05;;;;;;;3.78;3.47;;;20.50;1.00;;;;;;5032402;28;20497;-59
2023/06/14 05:02:31;;;;;;;4.18;3.78;;;20.40;1.00;;;;;;5033349;28;20028;-59
2023/06/14 05:04:57;;;;;;;4.30;3.33;;;20.50;1.00;;;;;;5026567;28;20522;-59
2023/06/14 05:07:23;;;;;;;5.97;3.85;;;20.50;1.00;;;;;;5033148;28;20032;-59
2023/06/14 05:09:49;;;;;;;3.85;3.55;;;20.50;1.00;;;;;;5033192;28;20474;-59
2023/06/14 05:12:18;;;;;;;3.63;3.33;;;20.40;1.00;;;;;;5032565;28;20120;-59
2023/06/14 05:14:44;;;;;;;3.35;3.05;;;20.40;1.00;;;;;;5033852;28;20076;-60
2023/06/14 05:17:10;;;;;;;5.32;3.72;;;20.50;1.00;;;;;;5033241;28;20025;-60
2023/06/14 05:19:35;;;;;;;4.35;3.63;;;20.40;1.00;;;;;;5032896;28;20360;-60
2023/06/14 05:22:02;;;;;;;6.20;3.20;;;20.50;1.00;;;;;;5031233;28;20536;-59
2023/06/14 05:24:30;;;;;;;4.22;3.83;;;20.50;1.00;;;;;;5033964;28;20355;-58
2023/06/14 05:26:56;;;;;;;4.20;3.38;;;20.60;1.00;;;;;;5031839;28;20056;-59
2023/06/14 05:29:22;;;;;;;3.60;3.30;;;20.70;1.00;;;;;;5032415;28;20061;-58
2023/06/14 05:31:47;;;;;;;6.80;3.72;;;20.70;1.00;;;;;;5032268;28;20072;-59
2023/06/14 05:34:13;;;;;;;4.07;3.65;;;20.70;1.00;;;;;;5032045;28;20467;-58
2023/06/14 05:36:39;;;;;;;6.85;3.80;;;20.70;1.00;;;;;;5032680;28;20049;-58
2023/06/14 05:39:06;;;;;;;7.97;4.28;;;20.90;1.00;;;;;;5032870;28;20029;-58
2023/06/14 05:41:32;;;;;;;5.63;4.00;;;20.90;1.00;;;;;;5030690;28;20045;-58
2023/06/14 05:43:58;;;;;;;5.35;3.67;;;21.00;1.00;;;;;;5032358;28;20029;-58
2023/06/14 05:46:25;;;;;;;4.85;4.00;;;21.00;1.00;;;;;;5029626;28;20032;-59
2023/06/14 05:48:54;;;;;;;4.20;3.55;;;21.00;1.00;;;;;;5037874;28;20360;-59
2023/06/14 05:51:20;;;;;;;4.38;3.78;;;21.00;1.00;;;;;;5036374;28;20112;-59
2023/06/14 05:53:50;;;;;;;3.60;3.30;;;20.90;1.00;;;;;;5028915;28;20021;-59
2023/06/14 05:56:20;;;;;;;5.22;4.22;;;21.00;1.00;;;;;;5035235;28;20578;-59
2023/06/14 05:58:46;;;;;;;4.47;4.07;;;21.10;1.00;;;;;;5034697;28;20032;-59
2023/06/14 06:01:13;;;;;;;8.20;4.57;;;21.00;1.00;;;;;;5033100;28;20029;-58
2023/06/14 06:03:38;;;;;;;10.98;5.05;;;21.00;1.00;;;;;;5032066;28;20165;-60
2023/06/14 06:06:04;;;;;;;5.53;4.75;;;21.10;1.00;;;;;;5031647;28;20530;-59
2023/06/14 06:08:31;;;;;;;4.80;4.32;;;21.10;1.00;;;;;;5032432;28;20029;-59
2023/06/14 06:10:57;;;;;;;5.00;4.50;;;21.10;1.00;;;;;;5032565;28;20077;-59
2023/06/14 06:13:22;;;;;;;5.47;4.50;;;21.20;1.00;;;;;;5032986;28;20049;-59
2023/06/14 06:15:48;;;;;;;5.65;4.30;;;21.20;1.00;;;;;;5031926;28;20034;-59
2023/06/14 06:18:15;;;;;;;6.90;4.18;;;21.20;1.00;;;;;;5032018;28;20035;-61
2023/06/14 06:20:41;;;;;;;4.35;3.95;;;21.30;1.00;;;;;;5032025;28;20088;-61
2023/06/14 06:23:07;;;;;;;5.07;4.38;;;21.30;1.00;;;;;;5032737;28;20021;-62
2023/06/14 06:25:33;;;;;;;5.63;4.53;;;21.40;1.00;;;;;;5032250;28;20078;-62
2023/06/14 06:27:59;;;;;;;5.57;4.47;;;21.40;1.00;;;;;;5026362;28;20030;-63
2023/06/14 06:30:28;;;;;;;5.75;4.95;;;21.40;1.00;;;;;;5031558;28;20041;-59
2023/06/14 06:32:55;;;;;;;6.03;5.32;;;21.40;1.00;;;;;;5030296;28;20026;-59
2023/06/14 06:35:21;;;;;;;4.90;4.40;;;21.40;1.00;;;;;;5030474;28;20037;-62
2023/06/14 06:37:47;;;;;;;5.05;4.55;;;21.50;1.00;;;;;;5027001;28;20041;-61
2023/06/14 06:40:12;;;;;;;5.28;4.55;;;21.60;1.00;;;;;;5031763;28;20032;-62
2023/06/14 06:42:38;;;;;;;7.65;5.18;;;21.70;1.00;;;;;;5031469;28;20021;-62
2023/06/14 06:45:05;;;;;;;5.45;4.95;;;21.70;1.00;;;;;;5030987;28;20090;-63
2023/06/14 06:47:31;;;;;;;4.90;4.28;;;21.70;1.00;;;;;;5026345;28;20400;-62
2023/06/14 06:49:56;;;;;;;5.07;4.50;;;21.70;1.00;;;;;;5032758;28;20057;-63
2023/06/14 06:52:22;;;;;;;5.55;4.07;;;21.70;1.00;;;;;;5030514;28;20018;-62
2023/06/14 06:54:49;;;;;;;5.65;4.43;;;21.70;1.00;;;;;;5025406;28;20458;-63
2023/06/14 06:57:14;;;;;;;4.85;4.43;;;21.90;1.00;;;;;;5028142;28;20039;-64
2023/06/14 06:59:40;;;;;;;5.55;5.00;;;22.00;1.00;;;;;;5028307;28;20025;-62
2023/06/14 07:02:06;;;;;;;7.07;5.28;;;22.00;1.00;;;;;;5031889;28;20128;-63
2023/06/14 07:04:32;;;;;;;6.53;4.95;;;22.10;1.00;;;;;;5033760;28;20033;-62
2023/06/14 07:06:57;;;;;;;5.65;4.75;;;22.10;1.00;;;;;;5032344;28;20028;-62
2023/06/14 07:09:24;;;;;;;7.30;5.45;;;22.10;1.00;;;;;;5021947;28;20670;-62
2023/06/14 07:11:50;;;;;;;6.72;5.82;;;22.20;1.00;;;;;;5032195;28;20029;-61
2023/06/14 07:14:16;;;;;;;5.65;5.15;;;22.20;1.00;;;;;;5033187;28;20070;-62
2023/06/14 07:16:42;;;;;;;7.85;6.13;;;22.20;1.00;;;;;;5030971;28;20128;-62
2023/06/14 07:19:09;;;;;;;6.18;5.55;;;22.30;1.00;;;;;;5032761;28;20116;-62
2023/06/14 07:21:35;;;;;;;6.22;5.63;;;22.40;1.00;;;;;;5031942;28;20479;-62
2023/06/14 07:24:01;;;;;;;5.93;5.43;;;22.40;1.00;;;;;;5031436;28;20045;-63
2023/06/14 07:26:26;;;;;;;6.90;6.18;;;22.40;1.00;;;;;;5032571;28;20030;-62
2023/06/14 07:28:52;;;;;;;6.72;6.00;;;22.40;1.00;;;;;;5033622;28;20399;-63
2023/06/14 07:31:19;;;;;;;6.53;5.80;;;22.50;1.00;;;;;;5030405;28;20064;-59
2023/06/14 07:33:45;;;;;;;9.52;5.50;;;22.50;1.00;;;;;;5033787;28;20374;-59
2023/06/14 07:36:10;;;;;;;8.57;6.35;;;22.50;1.00;;;;;;5030728;28;20033;-63
2023/06/14 07:38:36;;;;;;;7.88;6.45;;;22.60;1.00;;;;;;5033531;28;20091;-62
2023/06/14 07:41:02;;;;;;;7.65;6.82;;;22.60;1.00;;;;;;5034556;28;20033;-63
2023/06/14 07:43:28;;;;;;;8.25;6.22;;;22.60;1.00;;;;;;5023518;28;20092;-61
2023/06/14 07:45:54;;;;;;;8.77;6.40;;;22.70;1.00;;;;;;5022937;28;20026;-61
2023/06/14 07:48:19;;;;;;;7.60;6.22;;;22.80;1.00;;;;;;5035268;28;20034;-61
2023/06/14 07:50:45;;;;;;;11.40;8.07;;;22.70;1.00;;;;;;5039613;28;20103;-63
2023/06/14 07:53:11;;;;;;;9.43;8.13;;;22.70;1.00;;;;;;5035450;28;20037;-61
2023/06/14 07:55:36;;;;;;;9.35;6.82;;;22.80;1.00;;;;;;5033868;28;20044;-62
2023/06/14 07:58:06;;;;;;;10.43;7.32;;;22.80;1.00;;;;;;5033985;28;20025;-61
2023/06/14 08:00:32;;;;;;;8.88;6.97;;;22.90;1.00;;;;;;5030284;28;20033;-62
2023/06/14 08:02:59;;;;;;;9.82;7.30;;;23.00;1.00;;;;;;5035266;28;20022;-63
2023/06/14 08:05:28;;;;;;;8.27;6.68;;;23.10;1.00;;;;;;5028135;28;20032;-61
2023/06/14 08:07:54;;;;;;;7.47;6.75;;;23.10;1.00;;;;;;5027387;28;20075;-59
2023/06/14 08:10:21;;;;;;;8.38;7.20;;;23.20;1.00;;;;;;5031497;28;20033;-61
2023/06/14 08:12:48;;;;;;;8.13;7.32;;;23.00;1.00;;;;;;5032098;28;20065;-61
2023/06/14 08:15:14;;;;;;;7.80;7.05;;;23.00;1.00;;;;;;5034225;28;20390;-60
2023/06/14 08:17:40;;;;;;;7.97;7.18;;;23.00;1.00;;;;;;5020982;28;20033;-60
2023/06/14 08:20:07;;;;;;;11.57;7.13;;;23.10;1.00;;;;;;5034334;28;20021;-62
2023/06/14 08:22:34;;;;;;;8.50;7.70;;;23.10;1.00;;;;;;5033889;28;20502;-65
2023/06/14 08:25:01;;;;;;;10.00;8.85;;;23.20;1.00;;;;;;5034738;28;20557;-59
2023/06/14 08:27:26;;;;;;;8.50;7.60;;;23.30;1.00;;;;;;5030217;28;20881;-66
2023/06/14 08:29:52;;;;;;;9.63;7.38;;;23.30;1.00;;;;;;5027119;28;20033;-70
2023/06/14 08:32:18;;;;;;;9.07;8.13;;;23.30;1.00;;;;;;5024542;28;20463;-68
2023/06/14 08:34:43;;;;;;;9.23;8.30;;;23.40;1.00;;;;;;5030831;28;20440;-66
2023/06/14 08:37:09;;;;;;;11.45;8.40;;;23.50;1.00;;;;;;5029306;28;20033;-66
2023/06/14 08:39:35;;;;;;;10.65;9.35;;;23.60;1.00;;;;;;5033282;28;20107;-66
2023/06/14 08:42:03;;;;;;;11.07;9.80;;;23.50;1.00;;;;;;5032397;28;20029;-64
2023/06/14 08:44:29;;;;;;;10.75;9.65;;;23.50;1.00;;;;;;5030672;28;20087;-65
2023/06/14 08:46:57;;;;;;;13.60;9.77;;;23.50;1.00;;;;;;5027386;28;20056;-66
2023/06/14 08:49:24;;;;;;;12.20;9.23;;;23.40;1.00;;;;;;5043263;28;20032;-60
2023/06/14 08:51:58;;;;;;;10.15;7.95;;;23.40;1.00;;;;;;5024855;28;20038;-57
2023/06/14 08:54:27;;;;;;;11.77;10.55;;;23.60;1.00;;;;;;5030070;28;20036;-60
2023/06/14 08:56:57;;;;;;;13.27;8.38;;;23.60;1.00;;;;;;5033466;28;20056;-60
2023/06/14 08:59:25;;;;;;;12.10;9.20;;;23.70;1.00;;;;;;5033575;28;20020;-61
2023/06/14 09:01:52;;;;;;;10.40;8.63;;;23.90;1.00;;;;;;5027608;28;20026;-60
2023/06/14 09:04:19;;;;;;;10.27;8.38;;;23.90;1.00;;;;;;5027777;28;20071;-60
2023/06/14 09:06:45;;;;;;;10.40;8.75;;;23.90;1.00;;;;;;5025439;28;20042;-60
2023/06/14 09:09:12;;;;;;;9.48;8.40;;;23.90;1.00;;;;;;5029829;28;20068;-61
2023/06/14 09:11:37;;;;;;;11.00;8.73;;;24.10;1.00;;;;;;5031030;28;20120;-61
2023/06/14 09:14:04;;;;;;;9.85;7.88;;;24.10;1.00;;;;;;5032631;28;20044;-61
2023/06/14 09:16:33;;;;;;;11.40;8.43;;;24.10;1.00;;;;;;5031558;28;20031;-63
2023/06/14 09:18:58;;;;;;;9.40;8.48;;;24.10;1.00;;;;;;5027616;28;20471;-62
2023/06/14 09:21:24;;;;;;;9.98;8.35;;;24.10;1.00;;;;;;5031703;28;20082;-61
2023/06/14 09:23:50;;;;;;;13.23;9.57;;;24.20;1.00;;;;;;5033638;28;20095;-62
2023/06/14 09:26:19;;;;;;;12.68;9.50;;;24.20;1.00;;;;;;5032893;28;20029;-63
2023/06/14 09:28:49;;;;;;;11.23;9.93;;;24.30;1.00;;;;;;5034739;28;20028;-64
2023/06/14 09:31:17;;;;;;;10.65;9.50;;;24.30;1.00;;;;;;5037941;28;20098;-62
2023/06/14 09:34:24;;;;;;;10.95;9.70;;;24.20;1.00;;;;;;5032256;28;20036;-65
2023/06/14 09:36:50;;;;;;;12.75;9.65;;;24.20;1.00;;;;;;5024656;28;20064;-63
2023/06/14 09:39:18;;;;;;;10.73;9.48;;;24.40;1.00;;;;;;5033961;28;20033;-63
2023/06/14 09:41:44;;;;;;;12.40;10.32;;;24.40;1.00;;;;;;5029852;28;20060;-64
2023/06/14 09:44:12;;;;;;;10.68;9.68;;;24.30;1.00;;;;;;5032682;28;20036;-62
2023/06/14 09:46:37;;;;;;;11.60;10.27;;;24.30;1.00;;;;;;5036010;28;20072;-61
2023/06/14 09:49:04;;;;;;;10.50;8.68;;;24.30;1.00;;;;;;5030726;28;20443;-63
2023/06/14 09:51:30;;;;;;;12.45;9.32;;;24.30;1.00;;;;;;5032452;28;20136;-62
2023/06/14 09:54:04;;;;;;;10.10;8.80;;;24.50;1.00;;;;;;5029871;28;21369;-62
2023/06/14 09:56:37;;;;;;;9.80;8.80;;;24.60;1.00;;;;;;5028185;28;20037;-62
2023/06/14 09:59:08;;;;;;;12.02;6.93;;;24.60;1.00;;;;;;5033645;28;20086;-61
2023/06/14 10:01:39;;;;;;;8.40;7.65;;;24.50;1.00;;;;;;5032074;28;20458;-62
2023/06/14 10:04:06;;;;;;;12.38;9.57;;;24.50;1.00;;;;;;5034999;28;20096;-61
2023/06/14 10:06:36;;;;;;;8.68;6.90;;;24.60;1.00;;;;;;5032638;28;20030;-61
2023/06/14 10:09:05;;;;;;;7.13;6.47;;;24.70;1.00;;;;;;5030762;28;20025;-61
2023/06/14 10:11:31;;;;;;;9.63;8.10;;;24.80;1.00;;;;;;5029893;28;20044;-62
2023/06/14 10:13:58;;;;;;;9.15;8.27;;;24.90;1.00;;;;;;5037714;28;20025;-61
2023/06/14 10:16:52;;;;;;;9.15;8.20;;;25.00;1.00;;;;;;5028392;28;20372;-62
2023/06/14 10:19:37;;;;;;;10.18;9.27;;;25.00;1.00;;;;;;5026848;28;20026;-62
2023/06/14 10:22:10;;;;;;;13.05;11.15;;;25.30;1.00;;;;;;5028990;28;20025;-62
2023/06/14 10:24:44;;;;;;;9.00;7.85;;;25.30;1.00;;;;;;5024800;28;20458;-62
2023/06/14 10:27:10;;;;;;;8.55;7.65;;;25.40;1.00;;;;;;5031034;28;20029;-62
2023/06/14 10:30:01;;;;;;;8.68;7.80;;;25.40;1.00;;;;;;5028510;28;21301;-61
2023/06/14 10:32:30;;;;;;;11.50;9.73;;;25.40;99.90;;;;;;5033532;28;20175;-60
2023/06/14 10:35:08;;;;;;;10.23;8.90;;;25.40;99.90;;;;;;5031605;28;20533;-60
2023/06/14 10:38:11;;;;;;;10.07;9.07;;;25.60;99.90;;;;;;5033232;28;20126;-62
2023/06/14 10:40:37;;;;;;;9.65;8.70;;;25.70;99.90;;;;;;5033804;28;20041;-60
2023/06/14 10:43:22;;;;;;;12.32;8.20;;;25.70;99.90;;;;;;5038543;28;20041;-60
2023/06/14 10:46:38;;;;;;;11.93;10.75;;;25.70;99.90;;;;;;5030678;28;20029;-60
2023/06/14 10:49:05;;;;;;;13.05;10.65;;;25.90;99.90;;;;;;5032689;28;20084;-62
2023/06/14 10:51:46;;;;;;;9.57;8.68;;;26.00;99.90;;;;;;5036186;28;20052;-62
2023/06/14 10:54:20;;;;;;;9.20;8.30;;;26.00;99.90;;;;;;5038258;28;20471;-62
2023/06/14 10:56:52;;;;;;;8.60;7.80;;;26.10;99.90;;;;;;5037250;28;20030;-62
2023/06/14 10:59:22;;;;;;;11.30;7.45;;;26.30;99.90;;;;;;5039652;28;20032;-62
2023/06/14 11:02:18;;;;;;;8.25;7.40;;;26.40;99.90;;;;;;5035419;28;20126;-61
2023/06/14 11:04:48;;;;;;;33.33;13.88;;;26.60;99.90;;;;;;5040235;28;20064;-62
2023/06/14 11:07:55;;;;;;;11.65;10.65;;;26.80;99.90;;;;;;5034260;28;20029;-61
2023/06/14 11:10:50;;;;;;;9.73;8.73;;;26.80;99.90;;;;;;5038250;28;20479;-62
2023/06/14 11:13:19;;;;;;;10.60;9.35;;;27.00;99.90;;;;;;5003400;28;20513;-62
2023/06/14 11:15:47;;;;;;;18.48;12.35;;;27.20;99.90;;;;;;5030892;28;20132;-62
2023/06/14 11:18:14;;;;;;;15.73;13.13;;;27.30;99.90;;;;;;5054838;28;20048;-62
2023/06/14 11:20:40;;;;;;;12.48;11.15;;;29.50;99.90;;;;;;5037122;28;20029;-62
2023/06/14 11:23:06;;;;;;;13.20;10.27;;;30.40;99.90;;;;;;5038893;28;20371;-62
2023/06/14 11:25:32;;;;;;;9.20;8.27;;;32.60;99.90;;;;;;5035473;28;20060;-62
2023/06/14 11:28:01;;;;;;;9.35;8.38;;;31.50;99.90;;;;;;5030431;28;20033;-62
2023/06/14 11:30:26;;;;;;;10.75;9.65;;;32.20;99.90;;;;;;5032017;28;20034;-62
2023/06/14 11:32:53;;;;;;;10.95;9.85;;;32.00;99.90;;;;;;5028614;28;20030;-62
2023/06/14 11:35:23;;;;;;;10.80;9.13;;;33.30;99.90;;;;;;5038205;28;20063;-69
2023/06/14 11:37:49;;;;;;;10.02;8.88;;;31.80;99.90;;;;;;5036419;28;20032;-65
2023/06/14 11:40:16;;;;;;;8.82;7.93;;;30.20;99.90;;;;;;5035281;28;20052;-65
2023/06/14 11:42:42;;;;;;;9.88;8.98;;;29.50;99.90;;;;;;5035743;28;20022;-65
2023/06/14 11:45:09;;;;;;;10.50;9.43;;;29.70;99.90;;;;;;5029405;28;20095;-66
2023/06/14 11:47:39;;;;;;;8.85;8.05;;;30.50;99.90;;;;;;5036874;28;20025;-65
2023/06/14 11:50:08;;;;;;;9.93;9.05;;;30.10;99.90;;;;;;5034467;28;20128;-66
2023/06/14 11:52:34;;;;;;;9.98;8.98;;;32.00;99.90;;;;;;5035204;28;20009;-66
2023/06/14 11:55:02;;;;;;;9.00;8.13;;;29.90;99.90;;;;;;5034767;28;20021;-67
2023/06/14 11:57:28;;;;;;;10.52;8.27;;;29.50;99.90;;;;;;5021350;28;20167;-66
2023/06/14 11:59:55;;;;;;;9.15;8.35;;;30.40;99.90;;;;;;5032363;28;20108;-67
2023/06/14 12:02:22;;;;;;;9.23;8.15;;;32.10;99.90;;;;;;5032247;28;20386;-67
2023/06/14 12:04:48;;;;;;;8.55;7.75;;;30.40;99.90;;;;;;5035285;28;20056;-66
2023/06/14 12:07:19;;;;;;;10.25;7.80;;;30.70;99.90;;;;;;5032848;28;20022;-66
2023/06/14 12:09:54;;;;;;;9.52;8.50;;;30.30;99.90;;;;;;5023544;28;20534;-66
2023/06/14 12:12:25;;;;;;;11.20;8.00;;;30.80;99.90;;;;;;5034763;28;20337;-66
2023/06/14 12:14:51;;;;;;;7.78;7.05;;;32.00;99.90;;;;;;5034645;28;20083;-65
2023/06/14 12:17:18;;;;;;;7.60;5.93;;;29.90;99.90;;;;;;5027311;28;20431;-65
2023/06/14 12:19:46;;;;;;;9.90;6.53;;;30.50;99.90;;;;;;5033811;28;20018;-65
2023/06/14 12:22:13;;;;;;;7.25;6.13;;;31.30;99.90;;;;;;5034603;28;20038;-65
2023/06/14 12:24:39;;;;;;;6.38;5.78;;;32.10;99.90;;;;;;5034035;28;20076;-65
2023/06/14 12:27:05;;;;;;;7.13;6.45;;;33.40;99.90;;;;;;5034839;28;20029;-66
2023/06/14 12:29:35;;;;;;;6.80;5.53;;;32.80;99.90;;;;;;5033571;28;20056;-65
2023/06/14 12:32:01;;;;;;;6.25;5.75;;;32.20;99.90;;;;;;5030577;28;20418;-66
2023/06/14 12:34:27;;;;;;;8.05;6.90;;;31.50;99.90;;;;;;5034578;28;20030;-66
2023/06/14 12:37:11;;;;;;;7.72;7.10;;;31.40;99.90;;;;;;5030207;28;20021;-66
2023/06/14 12:39:39;;;;;;;;;;;32.00;99.90;;;;;;5030466;28;20352;-65
2023/06/14 12:42:05;;;;;;;6.10;5.50;;;31.80;99.90;;;;;;5032036;28;20382;-65
2023/06/14 12:44:33;;;;;;;6.28;5.78;;;31.50;99.90;;;;;;5032707;28;20025;-65
2023/06/14 12:46:59;;;;;;;7.63;6.32;;;32.20;99.90;;;;;;5023734;28;20041;-65
2023/06/14 12:49:25;;;;;;;6.88;6.25;;;32.40;99.90;;;;;;5026164;28;20043;-65
2023/06/14 12:51:50;;;;;;;6.53;6.03;;;31.60;99.90;;;;;;5034052;28;20053;-65
2023/06/14 12:54:17;;;;;;;6.72;6.22;;;31.20;99.90;;;;;;5032354;28;20025;-66
2023/06/14 12:56:44;;;;;;;7.03;6.32;;;30.80;99.90;;;;;;5032980;28;20056;-65
2023/06/14 12:59:10;;;;;;;6.30;5.72;;;31.10;99.90;;;;;;5027544;28;20036;-65